Flight Track Log - Related Links

Times and Time Zones

All times are in EDT time to prevent confusion due to time zone crossing. See the SWA607 flight status page for this flight to view local times or setup timezone preferences in your user account.

Time Position Orientation Groundspeed Altitude Reporting Facility
EDT Latitude Longitude Course Direction KTS MPH feet Rate Location/Type
Sun 04:00:34 PM 33.4333 -112.1000 270° West 218 251 3,700  Level Phoenix TRACON
Sun 04:01:16 PM 33.4314 -112.1414 267° West 220 253 5,500 2,827 Climbing Albuquerque Center
Sun 04:02:18 PM 33.4722 -112.1961 312° West 263 303 8,600 2,371 Climbing Albuquerque Center
Sun 04:03:20 PM 33.5100 -112.1228 58° Northeast 282 325 10,400 1,984 Climbing Albuquerque Center
Sun 04:04:22 PM 33.5336 -112.0128 76° East 345 397 12,700 2,661 Climbing Albuquerque Center
Sun 04:05:24 PM 33.5631 -111.8722 76° East 365 420 15,900 2,661 Climbing Albuquerque Center
Sun 04:06:26 PM 33.5883 -111.7503 76° East 378 435 18,200 2,177 Climbing Albuquerque Center
Sun 04:07:28 PM 33.6150 -111.6231 76° East 394 453 20,400 2,098 Climbing Albuquerque Center
Sun 04:08:29 PM 33.6422 -111.4908 76° East 411 473 22,500 1,854 Climbing Albuquerque Center
Sun 04:09:31 PM 33.6703 -111.3550 76° East 422 486 24,200 1,839 Climbing Albuquerque Center
Sun 04:10:33 PM 33.7164 -111.1892 71° East 441 507 26,300 1,694 Climbing Albuquerque Center
Sun 04:11:35 PM 33.7781 -111.0558 61° Northeast 458 527 27,700 1,306 Climbing Albuquerque Center
Sun 04:12:37 PM 33.8408 -110.9172 61° Northeast 468 539 29,000 1,268 Climbing Albuquerque Center
Sun 04:13:38 PM 33.9033 -110.7764 62° Northeast 476 548 30,300 1,366 Climbing Albuquerque Center
Sun 04:14:40 PM 33.9667 -110.6347 62° Northeast 480 552 31,800 1,452 Climbing Albuquerque Center
Sun 04:15:42 PM 34.0358 -110.4772 62° Northeast 483 556 33,300 1,306 Climbing Albuquerque Center
Sun 04:16:44 PM 34.1008 -110.3319 62° Northeast 487 560 34,500 1,065 Climbing Albuquerque Center
Sun 04:17:46 PM 34.1644 -110.1869 62° Northeast 488 562 35,500 1,016 Climbing Albuquerque Center
Sun 04:18:48 PM 34.2342 -110.0289 62° Northeast 493 567 36,600 726 Climbing Albuquerque Center
Sun 04:19:50 PM 34.3064 -109.8628 62° Northeast 497 572 37,000 195 Climbing Albuquerque Center
Sun 04:20:51 PM 34.3669 -109.7211 63° Northeast 498 573 37,000  Level Albuquerque Center
Sun 04:21:53 PM 34.4383 -109.5575 62° Northeast 494 568 37,000  Level Albuquerque Center
Sun 04:22:55 PM 34.4981 -109.4167 63° Northeast 493 567 37,000  Level Albuquerque Center
Sun 04:23:57 PM 34.5575 -109.2758 63° Northeast 490 564 37,000  Level Albuquerque Center
Sun 04:24:59 PM 34.6272 -109.1119 63° Northeast 491 565 37,000  Level Albuquerque Center
Sun 04:26:00 PM 34.6861 -108.9739 63° Northeast 487 560 37,000  Level Albuquerque Center
Sun 04:27:02 PM 34.7547 -108.8144 62° Northeast 482 555 37,000  Level Albuquerque Center
Sun 04:28:04 PM 34.8128 -108.6772 63° Northeast 479 551 37,000  Level Albuquerque Center
Sun 04:29:06 PM 34.8789 -108.5183 63° Northeast 475 547 37,000 48 Level Albuquerque Center
Sun 04:30:08 PM 34.9364 -108.3814 63° Northeast 474 545 37,100 488 Climbing Albuquerque Center
Sun 04:31:09 PM 35.0031 -108.2211 63° Northeast 475 547 38,000 439 Climbing Albuquerque Center
Sun 04:32:11 PM 35.0542 -108.0989 63° Northeast 477 549 38,000  Level Albuquerque Center
Sun 04:33:13 PM 35.1278 -107.9217 63° Northeast 477 549 38,000  Level Albuquerque Center
Sun 04:34:15 PM 35.1844 -107.7828 63° Northeast 478 550 38,000  Level Albuquerque Center
Sun 04:35:16 PM 35.2497 -107.6222 63° Northeast 476 548 38,000  Level Albuquerque Center
Sun 04:36:18 PM 35.3069 -107.4831 63° Northeast 478 550 38,000  Level Albuquerque Center
Sun 04:37:20 PM 35.3617 -107.3436 64° Northeast 476 548 38,000  Level Albuquerque Center
Sun 04:38:22 PM 35.4300 -107.1778 63° Northeast 472 543 38,000  Level Albuquerque Center
Sun 04:39:23 PM 35.4856 -107.0319 65° Northeast 472 543 38,000  Level Albuquerque Center
Sun 04:40:25 PM 35.5439 -106.8875 64° Northeast 471 542 38,000  Level Albuquerque Center
Sun 04:41:27 PM 35.6053 -106.7314 64° Northeast 471 542 38,000  Level Albuquerque Center
Sun 04:42:29 PM 35.6639 -106.5853 64° Northeast 469 540 38,000  Level Albuquerque Center
Sun 04:43:30 PM 35.7194 -106.4408 65° Northeast 475 547 38,000  Level Albuquerque Center
Sun 04:44:32 PM 35.7800 -106.2844 64° Northeast 471 542 38,000  Level Albuquerque Center
Sun 04:45:34 PM 35.8378 -106.1528 62° Northeast 469 540 38,000  Level Albuquerque Center
Sun 04:46:35 PM 35.8933 -106.0067 65° Northeast 471 542 38,000  Level Albuquerque Center
Sun 04:47:37 PM 35.9478 -105.8581 66° East 471 542 38,000  Level Albuquerque Center
Sun 04:48:39 PM 36.0036 -105.7119 65° Northeast 471 542 38,000 194 Level Albuquerque Center
Sun 04:49:41 PM 36.0592 -105.5656 65° Northeast 470 541 38,400 488 Climbing Albuquerque Center
Sun 04:50:42 PM 36.1239 -105.3969 65° Northeast 469 540 39,000 293 Climbing Albuquerque Center
Sun 04:51:44 PM 36.1808 -105.2469 65° Northeast 473 544 39,000  Level Albuquerque Center
Sun 04:52:46 PM 36.2350 -105.1008 65° Northeast 466 536 39,000  Level Albuquerque Center
Sun 04:53:47 PM 36.2900 -104.9561 65° Northeast 461 531 39,000  Level Albuquerque Center
Sun 04:54:49 PM 36.3447 -104.8092 65° Northeast 463 533 39,000  Level Albuquerque Center
Sun 04:55:51 PM 36.3986 -104.6647 65° Northeast 460 529 39,000  Level Albuquerque Center
Sun 04:56:53 PM 36.4519 -104.5197 65° Northeast 457 526 39,000  Level Albuquerque Center
Sun 04:57:54 PM 36.5058 -104.3750 65° Northeast 457 526 39,000  Level Albuquerque Center
Sun 04:58:56 PM 36.5664 -104.2078 66° East 452 520 39,000  Level Albuquerque Center
Sun 04:59:58 PM 36.6197 -104.0664 65° Northeast 449 517 39,000  Level Albuquerque Center
Sun 05:00:59 PM 36.6661 -103.9392 66° East 445 512 39,000  Level Albuquerque Center
Sun 05:02:01 PM 36.7222 -103.7825 66° East 444 511 39,000  Level Albuquerque Center
Sun 05:03:03 PM 36.7700 -103.6503 66° East 441 507 39,000  Level Albuquerque Center
Sun 05:04:05 PM 36.8247 -103.4961 66° East 439 505 39,000  Level Albuquerque Center
Sun 05:05:06 PM 36.8722 -103.3647 66° East 437 503 39,000  Level Albuquerque Center
Sun 05:06:08 PM 36.9264 -103.2103 66° East 436 502 39,000  Level Albuquerque Center
Sun 05:07:10 PM 36.9725 -103.0783 66° East 435 501 39,000  Level Albuquerque Center
Sun 05:08:11 PM 37.0269 -102.9228 66° East 437 503 39,000  Level Albuquerque Center
Sun 05:09:13 PM 37.0753 -102.7892 66° East 440 506 39,000  Level Albuquerque Center
Sun 05:10:15 PM 37.1228 -102.6536 66° East 443 510 39,000  Level Albuquerque Center
Sun 05:11:16 PM 37.1775 -102.4969 66° East 441 507 39,000  Level Albuquerque Center
Sun 05:12:18 PM 37.2239 -102.3606 67° East 444 511 39,000  Level Albuquerque Center
Sun 05:13:20 PM 37.2783 -102.2014 67° East 444 511 39,000  Level Albuquerque Center
Sun 05:14:22 PM 37.3258 -102.0619 67° East 442 509 39,000  Level Albuquerque Center
Sun 05:15:23 PM 37.3711 -101.9247 67° East 444 511 39,000  Level Albuquerque Center
Sun 05:16:40 PM 37.4325 -101.7419 67° East 444 511 39,000  Level Kansas City Center
Sun 05:17:41 PM 37.4858 -101.5842 67° East 440 506 39,000  Level Kansas City Center
Sun 05:18:45 PM 37.5303 -101.4497 67° East 437 503 39,000  Level Kansas City Center
Sun 05:19:46 PM 37.5825 -101.2950 67° East 431 496 39,000  Level Kansas City Center
Sun 05:20:47 PM 37.6258 -101.1633 67° East 427 491 39,000  Level Kansas City Center
Sun 05:21:50 PM 37.6761 -101.0133 67° East 423 487 39,000  Level Kansas City Center
Sun 05:22:51 PM 37.7222 -100.8700 68° East 440 506 39,000  Level Kansas City Center
Sun 05:23:54 PM 37.7700 -100.7300 67° East 437 503 39,000  Level Kansas City Center
Sun 05:24:55 PM 37.8175 -100.5786 68° East 424 488 39,000  Level Kansas City Center
Sun 05:25:56 PM 37.8603 -100.4450 68° East 425 489 39,000  Level Kansas City Center
Sun 05:27:00 PM 37.9033 -100.3106 68° East 429 494 39,000  Level Kansas City Center
Sun 05:28:01 PM 37.9528 -100.1544 68° East 428 493 39,000  Level Kansas City Center
Sun 05:29:04 PM 37.9961 -100.0183 68° East 433 498 39,000  Level Kansas City Center
Sun 05:30:05 PM 38.0456 -99.8608 68° East 431 496 39,000  Level Kansas City Center
Sun 05:31:07 PM 38.0878 -99.7269 68° East 429 494 39,000  Level Kansas City Center
Sun 05:32:10 PM 38.1367 -99.5686 69° East 430 495 39,000  Level Kansas City Center
Sun 05:33:13 PM 38.1753 -99.4467 68° East 430 495 39,000  Level Kansas City Center
Sun 05:34:14 PM 38.2283 -99.2778 68° East 428 493 39,000  Level Kansas City Center
Sun 05:35:17 PM 38.2719 -99.1356 69° East 430 495 39,000  Level Kansas City Center
Sun 05:36:18 PM 38.3150 -98.9933 69° East 430 495 39,000  Level Kansas City Center
Sun 05:37:19 PM 38.3606 -98.8497 68° East 434 499 39,000  Level Kansas City Center
Sun 05:38:23 PM 38.4056 -98.7044 68° East 438 504 39,000  Level Kansas City Center
Sun 05:39:24 PM 38.4494 -98.5583 69° East 438 504 39,000  Level Kansas City Center
Sun 05:40:25 PM 38.4925 -98.4131 69° East 437 503 39,000  Level Kansas City Center
Sun 05:41:29 PM 38.5456 -98.2383 69° East 437 503 39,000  Level Kansas City Center
Sun 05:42:30 PM 38.5892 -98.0919 69° East 438 504 39,000  Level Kansas City Center
Sun 05:43:34 PM 38.6319 -97.9458 69° East 437 503 39,000  Level Kansas City Center
Sun 05:44:34 PM 38.6744 -97.7986 70° East 438 504 39,000  Level Kansas City Center
Sun 05:45:35 PM 38.7197 -97.6494 69° East 438 504 39,000  Level Kansas City Center
Sun 05:46:38 PM 38.7683 -97.4789 70° East 440 506 39,000  Level Kansas City Center
Sun 05:47:40 PM 38.8033 -97.3561 70° East 442 509 39,000  Level Kansas City Center
Sun 05:48:41 PM 38.8550 -97.1764 70° East 446 513 39,000  Level Kansas City Center
Sun 05:49:45 PM 38.8969 -97.0264 70° East 446 513 39,000  Level Kansas City Center
Sun 05:50:46 PM 38.9394 -96.8753 70° East 448 516 39,000  Level Kansas City Center
Sun 05:51:49 PM 38.9861 -96.7253 68° East 453 521 39,000  Level Kansas City Center
Sun 05:52:50 PM 39.0269 -96.5731 71° East 454 522 39,000  Level Kansas City Center
Sun 05:53:54 PM 39.0736 -96.3989 71° East 459 528 39,000  Level Kansas City Center
Sun 05:54:54 PM 39.1139 -96.2508 71° East 458 527 39,000  Level Kansas City Center
Sun 05:55:57 PM 39.1619 -96.0772 70° East 460 529 39,000  Level Kansas City Center
Sun 05:56:59 PM 39.2028 -95.9269 71° East 462 532 39,000  Level Kansas City Center
Sun 05:58:00 PM 39.2343 -95.7796 71° East  Level FlightAware Approximate
Sun 05:58:02 PM 39.2511 -95.7533 71° East 461 531 39,000  Level Kansas City Center
Sun 05:59:02 PM 39.2919 -95.6022 71° East 462 532 39,000  Level Kansas City Center
Sun 06:00:04 PM 39.3375 -95.4283 71° East 464 534 39,000  Level Kansas City Center
Sun 06:01:06 PM 39.3822 -95.2603 71° East 463 533 39,000  Level Kansas City Center
Sun 06:02:10 PM 39.4244 -95.1056 70° East 459 528 39,000  Level Kansas City Center
Sun 06:03:11 PM 39.4661 -94.9458 71° East 457 526 39,000  Level Kansas City Center
Sun 06:04:12 PM 39.5056 -94.7972 71° East 456 525 39,000  Level Kansas City Center
Sun 06:05:16 PM 39.5506 -94.6217 72° East 458 527 39,000  Level Kansas City Center
Sun 06:06:18 PM 39.5883 -94.4728 72° East 455 524 39,000  Level Kansas City Center
Sun 06:07:18 PM 39.6328 -94.2989 72° East 454 522 39,000  Level Kansas City Center
Sun 06:08:20 PM 39.6711 -94.1492 72° East 456 525 39,000  Level Kansas City Center
Sun 06:09:23 PM 39.7086 -94.0000 72° East 455 524 39,000  Level Kansas City Center
Sun 06:10:25 PM 39.7519 -93.8250 72° East 456 525 39,000  Level Kansas City Center
Sun 06:11:27 PM 39.7900 -93.6744 72° East 458 527 39,000  Level Kansas City Center
Sun 06:12:29 PM 39.8283 -93.5178 72° East 459 528 39,000  Level Kansas City Center
Sun 06:13:32 PM 39.8750 -93.3314 72° East 457 526 39,000  Level Kansas City Center
Sun 06:14:33 PM 39.9136 -93.1761 72° East 456 525 39,000  Level Kansas City Center
Sun 06:15:36 PM 39.9500 -93.0203 73° East 455 524 39,000  Level Kansas City Center
Sun 06:16:37 PM 39.9878 -92.8639 72° East 457 526 39,000  Level Kansas City Center
Sun 06:17:41 PM 40.0233 -92.7097 73° East 454 522 39,000  Level Kansas City Center
Sun 06:18:41 PM 40.0689 -92.5164 73° East 457 526 39,000 -446 Level Kansas City Center
Sun 06:19:42 PM 40.1058 -92.3647 72° East 458 527 38,100 -864 Descending Kansas City Center
Sun 06:20:46 PM 40.1433 -92.2125 72° East 461 531 37,200 -968 Descending Kansas City Center
Sun 06:21:46 PM 40.1864 -92.0250 73° East 458 527 36,100 -1,024 Descending Kansas City Center
Sun 06:22:49 PM 40.2239 -91.8644 73° East 464 534 35,100 -968 Descending Kansas City Center
Sun 06:23:50 PM 40.2597 -91.7044 74° East 465 535 34,100 -905 Descending Kansas City Center
Sun 06:24:55 PM 40.2964 -91.5433 73° East 466 536 33,200 -857 Descending Kansas City Center
Sun 06:25:56 PM 40.3325 -91.3803 74° East 468 539 32,300 -976 Descending Kansas City Center
Sun 06:26:58 PM 40.3750 -91.1939 73° East 470 541 31,200 -639 Descending Kansas City Center
Sun 06:27:58 PM 40.4117 -91.0278 74° East 473 544 31,000 -97 Descending Kansas City Center
Sun 06:29:02 PM 40.4483 -90.8611 74° East 475 547 31,000  Level Kansas City Center
Sun 06:30:03 PM 40.4867 -90.6925 73° East 479 551 31,000  Level Kansas City Center
Sun 06:31:07 PM 40.5300 -90.4917 74° East 478 550 31,000  Level Kansas City Center
Sun 06:32:07 PM 40.5672 -90.3244 74° East 477 549 31,000 -878 Level Kansas City Center
Sun 06:33:10 PM 40.6033 -90.1550 74° East 479 551 29,200 -2,032 Descending Kansas City Center
Sun 06:34:11 PM 40.6381 -89.9914 74° East 475 547 26,800 -2,256 Descending Kansas City Center
Sun 06:35:15 PM 40.6700 -89.8353 75° East 459 528 24,500 -1,728 Descending Kansas City Center
Sun 06:36:16 PM 40.7222 -89.6908 64° Northeast 454 522 23,200 -1,452 Descending Kansas City Center
Sun 06:37:19 PM 40.7906 -89.5553 56° Northeast 411 473 21,500 -1,329 Descending Kansas City Center
Sun 06:38:36 PM 40.8906 -89.3975 50° Northeast 409 471 20,100 -993 Descending Chicago Center
Sun 06:39:38 PM 40.9611 -89.2831 51° Northeast 404 465 19,200 -1,392 Descending Chicago Center
Sun 06:40:41 PM 41.0339 -89.1644 51° Northeast 397 457 17,200 -2,112 Descending Chicago Center
Sun 06:41:43 PM 41.1014 -89.0558 50° Northeast 388 447 14,800 -2,274 Descending Chicago Center
Sun 06:42:45 PM 41.1669 -88.9486 51° Northeast 379 436 12,500 -2,032 Descending Chicago Center
Sun 06:43:47 PM 41.2303 -88.8444 51° Northeast 369 425 10,600 -1,258 Descending Chicago Center
Sun 06:44:49 PM 41.2958 -88.7347 51° Northeast 317 365 9,900 -919 Descending Chicago Center
Sun 06:45:51 PM 41.3322 -88.6419 62° Northeast 299 344 8,700 -1,065 Descending Chicago Center
Sun 06:46:53 PM 41.3606 -88.5389 70° East 299 344 7,700 -968 Descending Chicago Center
Sun 06:47:55 PM 41.3886 -88.4378 70° East 295 339 6,700 -823 Descending Chicago Center
Sun 06:48:57 PM 41.4172 -88.3397 69° East 289 333 6,000 -339 Descending Chicago Center
Sun 06:49:59 PM 41.4519 -88.2192 69° East 289 333 6,000  Level Chicago Center
Sun 06:51:01 PM 41.4806 -88.1183 69° East 289 333 6,000  Level Chicago Center
Sun 06:52:03 PM 41.5119 -88.0175 67° East 292 336 6,000 -484 Level Chicago Center
Sun 06:53:05 PM 41.5408 -87.9175 69° East 290 334 5,000 -528 Descending Chicago Center
Sun 06:54:08 PM 41.5775 -87.8267 62° Northeast 293 337 4,900 -816 Descending Chicago Center
Sun 06:55:10 PM 41.6389 -87.7625 38° Northeast 286 329 3,300 -1,210 Descending Chicago Center
Sun 06:56:12 PM 41.7031 -87.7039 34° Northeast 284 327 2,400 -387 Descending Chicago Center
Sun 06:57:14 PM 41.7694 -87.6572 28° Northeast 243 280 2,500 -242 Climbing Chicago Center
Sun 06:58:16 PM 41.8069 -87.6814 334° Northwest 193 222 1,900 -726 Descending Chicago Center
Sun 06:59:18 PM 41.8069 -87.7250 270° West 154 177 1,000 -871 Descending Chicago Center

Login

Don't have an account? Register now (free) for customized features, flight alerts, and more!